Aviation Digital Data Service (ADDS)

Output produced by METARs form (1003 UTC 23 October 2014)
found at http://www.aviationweather.gov/adds/metars/
 
KTHV 231001Z AUTO 33006KT 10SM OVC030 11/06 A2989 RMK AO2 T01110061
KTHV 230953Z AUTO 33008KT 10SM OVC029 11/06 A2988 RMK AO2 SLP122 T01110061
KTHV 230853Z AUTO 33012KT 10SM OVC028 11/06 A2987 RMK AO2 RAB06E07 SLP117 P0000 60000 T01110061 56006
KTHV 230753Z AUTO 33010G16KT 10SM OVC027 11/06 A2987 RMK AO2 SLP118 T01110061
KTHV 230653Z AUTO 32009G17KT 10SM OVC028 11/06 A2988 RMK AO2 RAB00E11 SLP119 P0000 T01110061
KTHV 230553Z AUTO 32012KT 10SM OVC026 11/06 A2989 RMK AO2 SLP124 60000 T01060061 10117 20106 56019
KTHV 230453Z AUTO 32012G16KT 10SM OVC026 11/06 A2991 RMK AO2 SLP132 T01060061 401280106
KTHV 230353Z AUTO 31011G20KT 10SM OVC028 11/06 A2992 RMK AO2 SLP135 T01060061
KTHV 230253Z AUTO 32011G17KT 10SM BKN029 OVC050 11/06 A2994 RMK AO2 SLP142 60000 T01110061 58004
KTHV 230217Z AUTO 32010G17KT 10SM OVC029 11/06 A2995 RMK AO2 T01110061
KTHV 230153Z AUTO 33010KT 10SM OVC031 11/06 A2995 RMK AO2 RAB24E34 SLP144 P0000 T01110061
KTHV 230053Z AUTO 34010G17KT 10SM SCT030 BKN036 OVC060 12/06 A2997 RMK AO2 SLP150 T01170061
KTHV 230046Z AUTO 33010G19KT 10SM SCT029 BKN036 OVC060 12/06 A2997 RMK AO2 T01170061
KTHV 222353Z AUTO 34009KT 10SM OVC028 12/07 A2996 RMK AO2 SLP147 60000 T01170067 10128 20117 51003
KTHV 222253Z AUTO 34012G16KT 10SM OVC027 12/07 A2996 RMK AO2 SLP147 T01220067
KTHV 222153Z AUTO 36010G18KT 10SM OVC029 12/07 A2995 RMK AO2 SLP145 T01220072
KTHV 222053Z AUTO 35010G18KT 10SM OVC026 12/07 A2995 RMK AO2 SLP144 60000 T01220072 55001
KTHV 222009Z AUTO 34011G19KT 10SM BKN025 OVC037 13/08 A2995 RMK AO2 T01280078
KTHV 221953Z AUTO 34013KT 10SM SCT023 SCT029 OVC036 13/08 A2995 RMK AO2 SLP143 T01280078
KTHV 221853Z AUTO 33012G21KT 10SM BKN019 OVC032 12/08 A2995 RMK AO2 RAE07 SLP144 P0000 T01220083
KTHV 221753Z AUTO 34012G18KT 10SM -RA BKN016 OVC032 12/09 A2995 RMK AO2 SLP144 P0001 60006 T01170094 10128 20117 58003
KTHV 221653Z AUTO 34012G21KT 10SM -RA FEW015 OVC025 12/09 A2996 RMK AO2 SLP150 P0001 T01170094
KTHV 221553Z AUTO 34011G19KT 10SM -RA FEW018 OVC026 12/09 A2997 RMK AO2 RAB1456 SLP149 P0002 T01170094
KTHV 221453Z AUTO 35009G18KT 10SM OVC028 12/09 A2996 RMK AO2 RAE52 SLP148 P0002 60002 T01220094 51009
KTHV 221439Z AUTO 34010G17KT 10SM -RA BKN027 OVC032 12/09 A2996 RMK AO2 P0002 T01170094
KTHV 221418Z AUTO 34010KT 10SM -RA OVC031 12/09 A2996 RMK AO2 P0001 T01220094
KTHV 221409Z AUTO 34008KT 6SM -RA BKN029 BKN035 OVC065 12/09 A2995 RMK AO2 P0001 T01220094
KTHV 221353Z AUTO 35010G18KT 9SM -RA SCT027 BKN034 OVC065 12/09 A2995 RMK AO2 RAB45 SLP145 P0000 T01220089
KTHV 221312Z AUTO 35011G16KT 10SM OVC029 13/09 A2995 RMK AO2 T01280089
KTHV 221253Z AUTO 35010KT 10SM OVC031 12/09 A2994 RMK AO2 SLP142 T01220089
KTHV 221153Z AUTO 33007KT 10SM BKN033 BKN043 OVC085 12/09 A2993 RMK AO2 SLP138 60042 70047 T01170089 10117 20106 53010
KTHV 221053Z AUTO 34007KT 10SM BKN033 BKN041 OVC075 12/09 A2992 RMK AO2 SLP133 T01170094
KTHV 220953Z AUTO 31006KT 10SM OVC037 11/09 A2991 RMK AO2 RAE10 SLP129 P0001 T01110094
KTHV 220918Z AUTO 27005KT 7SM FEW020 BKN035 OVC046 11/10 A2990 RMK AO2 RAE10 P0000 T01060100
KTHV 220853Z AUTO 27003KT 5SM -RA BR OVC020 11/10 A2990 RMK AO2 SLP127 P0006 60041 T01060100 53003
KTHV 220756Z AUTO 00000KT 3SM RA BR BKN021 OVC026 11/10 A2990 RMK AO2 P0001 T01060100
KTHV 220753Z AUTO 00000KT 2SM RA BR BKN021 OVC026 11/10 A2990 RMK AO2 SLP125 P0031 T01060100
KTHV 220735Z AUTO 00000KT 1 3/4SM +RA BR BKN022 OVC032 11/10 A2989 RMK AO2 P0020 T01060100
KTHV 220731Z AUTO 00000KT 2 1/2SM +RA BR FEW018 BKN022 OVC044 11/10 A2990 RMK AO2 P0016 T01110100
KTHV 220725Z AUTO 00000KT 1 1/2SM +RA BR FEW024 BKN034 OVC047 11/09 A2990 RMK AO2 VIS 3/4V2 1/2 P0014 T01060094
KTHV 220715Z AUTO 00000KT 2SM RA BR SCT031 BKN048 OVC060 11/09 A2989 RMK AO2 VIS 1 1/4V4 P0006 T01110094
KTHV 220653Z AUTO 32003KT 3SM +RA BR SCT043 BKN050 OVC065 11/09 A2989 RMK AO2 SLP123 P0004 T01110094
KTHV 220553Z AUTO VRB03KT 10SM -RA BKN039 OVC075 11/09 A2989 RMK AO2 RAB08E21B45 SLP123 P0000 60003 T01110094 10117 20106 58008
KTHV 220453Z AUTO 30003KT 10SM FEW050 BKN065 OVC080 11/09 A2990 RMK AO2 RAB11E49 SLP127 P0000 T01060094 401890061
KTHV 220353Z AUTO 00000KT 10SM SCT050 OVC065 11/09 A2992 RMK AO2 SLP133 T01110094
KTHV 220253Z AUTO 29003KT 10SM OVC100 11/10 A2992 RMK AO2 RAE09 SLP133 P0000 60003 T01060100 51012
KTHV 220153Z AUTO 26003KT 9SM -RA OVC065 11/10 A2991 RMK AO2 SLP132 P0003 T01110100
KTHV 220053Z AUTO 28006KT 8SM -RA OVC070 12/10 A2990 RMK AO2 RAB21 SLP129 P0000 T01170100
KTHV 212353Z AUTO 28005KT 10SM OVC110 12/10 A2988 RMK AO2 SLP122 60002 T01170100 10189 20117 51019
KTHV 212253Z AUTO 28004KT 10SM FEW060 OVC090 12/10 A2987 RMK AO2 RAE39 SLP117 P0001 T01220100